createdAt,value
2018-09-05T00:00:54.243Z,91731.77
2018-09-05T00:03:32.756Z,91730.07
2018-09-05T00:06:12.527Z,91731.46
2018-09-05T00:08:50.330Z,91732.70
2018-09-05T00:11:26.461Z,91724.67
2018-09-05T00:14:02.518Z,91727.47
2018-09-05T00:18:02.582Z,91732.91
2018-09-05T00:20:38.556Z,91728.73
2018-09-05T00:23:14.333Z,91729.06
2018-09-05T00:25:50.180Z,91735.61
2018-09-05T00:28:25.918Z,91736.91
2018-09-05T00:31:01.757Z,91730.80
2018-09-05T00:33:37.640Z,91731.61
2018-09-05T00:36:13.588Z,91735.56
2018-09-05T00:38:49.646Z,91738.31
2018-09-05T00:41:25.625Z,91733.16
2018-09-05T00:44:01.484Z,91734.36
2018-09-05T00:46:37.519Z,91731.94
2018-09-05T00:49:13.746Z,91729.88
2018-09-05T00:51:49.569Z,91730.39
2018-09-05T00:54:25.362Z,91734.53
2018-09-05T00:57:01.118Z,91739.54
2018-09-05T00:59:36.898Z,91732.78
2018-09-05T01:02:12.903Z,91732.42
2018-09-05T01:04:48.729Z,91732.78
2018-09-05T01:07:26.486Z,91736.72
2018-09-05T01:17:46.320Z,91749.63
2018-09-05T01:20:23.094Z,91753.80
2018-09-05T01:22:59.334Z,91752.00
2018-09-05T01:25:35.444Z,91748.11
2018-09-05T01:28:11.643Z,91753.98
2018-09-05T01:30:47.361Z,91751.16
2018-09-05T01:33:23.134Z,91745.13
2018-09-05T01:36:05.216Z,91743.14
2018-09-05T01:38:41.913Z,91751.64
2018-09-05T01:41:17.577Z,91744.98
2018-09-05T01:43:53.325Z,91746.14
2018-09-05T01:46:29.013Z,91742.77
2018-09-05T01:49:05.441Z,91742.14
2018-09-05T01:51:41.395Z,91743.41
2018-09-05T01:54:17.552Z,91745.98
2018-09-05T01:56:55.234Z,91748.89
2018-09-05T01:59:31.577Z,91735.40
2018-09-05T02:02:07.412Z,91740.27
2018-09-05T02:04:43.675Z,91740.59
2018-09-05T02:07:19.362Z,91737.82
2018-09-05T02:09:55.852Z,91742.81
2018-09-05T02:12:31.542Z,91739.84
2018-09-05T02:15:07.329Z,91740.88
2018-09-05T02:17:43.039Z,91743.43
2018-09-05T02:20:19.148Z,91745.95
2018-09-05T02:22:54.982Z,91748.44
2018-09-05T02:25:30.815Z,91747.11
2018-09-05T02:28:06.647Z,91746.84
2018-09-05T02:30:42.494Z,91749.42
2018-09-05T02:33:18.369Z,91749.36
2018-09-05T02:35:54.949Z,91753.05
2018-09-05T02:38:30.871Z,91750.14
2018-09-05T02:41:07.034Z,91755.30
2018-09-05T02:43:48.084Z,91755.32
2018-09-05T02:46:23.917Z,91753.37
2018-09-05T02:48:59.903Z,91759.29
2018-09-05T02:51:36.318Z,91763.95
2018-09-05T02:54:13.172Z,91758.44
2018-09-05T02:56:49.244Z,91753.95
2018-09-05T02:59:25.427Z,91755.97
2018-09-05T03:02:01.174Z,91747.27
2018-09-05T03:04:36.797Z,91752.91
2018-09-05T03:07:12.692Z,91753.95
2018-09-05T03:09:49.343Z,91751.56
2018-09-05T03:12:25.836Z,91746.83
2018-09-05T03:15:01.697Z,91748.11
2018-09-05T03:17:37.481Z,91743.12
2018-09-05T03:20:13.728Z,91750.05
2018-09-05T03:22:49.524Z,91750.70
2018-09-05T03:25:25.221Z,91751.69
2018-09-05T03:28:01.169Z,91752.52
2018-09-05T03:30:36.665Z,91751.40
2018-09-05T03:33:11.566Z,91750.92
2018-09-05T03:35:46.484Z,91751.86
2018-09-05T03:38:21.232Z,91751.86
2018-09-05T03:40:56.221Z,91751.34
2018-09-05T03:43:31.056Z,91752.67
2018-09-05T03:46:05.900Z,91757.97
2018-09-05T03:48:40.864Z,91751.73
2018-09-05T03:51:15.753Z,91756.83
2018-09-05T03:53:50.354Z,91761.89
2018-09-05T03:56:26.758Z,91756.63
2018-09-05T03:59:01.495Z,91753.03
2018-09-05T04:01:36.068Z,91761.25
2018-09-05T04:04:10.825Z,91762.03
2018-09-05T04:06:45.502Z,91755.52
2018-09-05T04:09:20.348Z,91769.39
2018-09-05T04:11:55.233Z,91763.13
2018-09-05T04:14:30.088Z,91766.39
2018-09-05T04:17:04.952Z,91767.33
2018-09-05T04:19:39.977Z,91766.15
2018-09-05T04:22:15.086Z,91769.22
2018-09-05T04:24:50.642Z,91769.94
2018-09-05T04:27:25.438Z,91774.35
2018-09-05T04:30:06.390Z,91775.59
2018-09-05T04:32:41.113Z,91774.00
2018-09-05T04:35:15.928Z,91774.41
2018-09-05T04:37:51.489Z,91780.02
2018-09-05T04:40:26.311Z,91781.29
2018-09-05T04:43:01.108Z,91782.46
2018-09-05T04:45:35.963Z,91787.45
2018-09-05T04:48:10.798Z,91793.50
2018-09-05T04:50:45.589Z,91793.09
2018-09-05T04:53:20.621Z,91788.44
2018-09-05T04:55:55.473Z,91784.92
2018-09-05T04:58:30.221Z,91788.02
2018-09-05T05:01:05.597Z,91783.04
2018-09-05T05:03:40.762Z,91780.80
2018-09-05T05:06:16.433Z,91773.50
2018-09-05T05:08:51.150Z,91770.55
2018-09-05T05:11:25.833Z,91765.44
2018-09-05T05:14:00.593Z,91774.33
2018-09-05T05:16:36.526Z,91774.95
2018-09-05T05:19:14.554Z,91780.08
2018-09-05T05:21:50.628Z,91777.32
2018-09-05T05:24:26.218Z,91772.94
2018-09-05T05:27:01.911Z,91778.00
2018-09-05T05:29:38.403Z,91776.42
2018-09-05T05:32:14.421Z,91774.38
2018-09-05T05:34:50.243Z,91773.15
2018-09-05T05:37:26.114Z,91766.27
2018-09-05T05:40:06.150Z,91770.64
2018-09-05T05:42:43.220Z,91770.56
2018-09-05T05:45:19.134Z,91759.81
2018-09-05T05:47:55.731Z,91766.28
2018-09-05T05:50:31.701Z,91769.22
2018-09-05T05:53:07.617Z,91772.86
2018-09-05T05:55:43.538Z,91771.63
2018-09-05T05:58:19.201Z,91769.65
2018-09-05T06:00:55.922Z,91779.15
2018-09-05T06:03:32.821Z,91770.63
2018-09-05T06:06:08.783Z,91772.22
2018-09-05T06:08:45.040Z,91780.09
2018-09-05T06:11:21.595Z,91776.30
2018-09-05T06:13:57.527Z,91776.28
2018-09-05T06:16:33.346Z,91776.13
2018-09-05T06:19:09.414Z,91771.81
2018-09-05T06:21:40.453Z,91766.64
2018-09-05T06:24:11.244Z,91769.44
2018-09-05T06:26:42.773Z,91765.42
2018-09-05T06:29:13.659Z,91766.58
2018-09-05T06:31:44.421Z,91765.34
2018-09-05T06:34:15.482Z,91766.34
2018-09-05T06:36:46.465Z,91761.80
2018-09-05T06:39:18.215Z,91767.44
2018-09-05T06:41:49.059Z,91761.45
2018-09-05T06:44:20.471Z,91766.06
2018-09-05T06:46:51.322Z,91765.03
2018-09-05T06:49:22.178Z,91763.45
2018-09-05T06:51:53.209Z,91765.40
2018-09-05T06:54:24.004Z,91765.15
2018-09-05T06:56:55.007Z,91766.20
2018-09-05T06:59:26.788Z,91757.34
2018-09-05T07:01:57.571Z,91757.61
2018-09-05T07:04:28.737Z,91748.94
2018-09-05T07:07:01.227Z,91751.05
2018-09-05T07:09:32.202Z,91741.91
2018-09-05T07:12:03.897Z,91747.74
2018-09-05T07:14:34.903Z,91743.78
2018-09-05T07:17:06.029Z,91743.11
2018-09-05T07:19:37.127Z,91744.77
2018-09-05T07:22:08.262Z,91740.53
2018-09-05T07:24:40.089Z,91736.38
2018-09-05T07:27:10.922Z,91740.07
2018-09-05T07:29:41.793Z,91741.22
2018-09-05T07:32:13.042Z,91738.86
2018-09-05T07:34:43.998Z,91739.31
2018-09-05T07:37:16.280Z,91738.00
2018-09-05T07:39:47.365Z,91735.94
2018-09-05T07:42:18.163Z,91729.68
2018-09-05T07:44:49.589Z,91734.33
2018-09-05T07:47:20.354Z,91726.89
2018-09-05T07:49:52.034Z,91731.73
2018-09-05T07:52:22.785Z,91725.19
2018-09-05T07:54:53.699Z,91730.94
2018-09-05T07:57:24.519Z,91735.94
2018-09-05T07:59:55.447Z,91727.95
2018-09-05T08:02:29.122Z,91727.12
2018-09-05T08:05:01.364Z,91726.37
2018-09-05T08:07:32.669Z,91727.88
2018-09-05T08:10:04.296Z,91724.05
2018-09-05T08:12:35.057Z,91725.36
2018-09-05T08:15:06.715Z,91716.31
2018-09-05T08:17:37.664Z,91709.98
2018-09-05T08:20:08.514Z,91713.16
2018-09-05T08:22:40.000Z,91712.14
2018-09-05T08:25:10.784Z,91710.89
2018-09-05T08:27:43.148Z,91711.28
2018-09-05T08:30:14.218Z,91710.86
2018-09-05T08:32:44.965Z,91701.59
2018-09-05T08:35:17.113Z,91712.14
2018-09-05T08:37:48.077Z,91710.28
2018-09-05T08:40:19.701Z,91708.00
2018-09-05T08:42:50.649Z,91705.97
2018-09-05T08:45:22.176Z,91709.24
2018-09-05T08:47:53.086Z,91704.93
2018-09-05T08:50:23.993Z,91706.55
2018-09-05T08:52:54.852Z,91704.48
2018-09-05T08:55:25.859Z,91705.52
2018-09-05T08:57:56.814Z,91700.64
2018-09-05T09:00:27.592Z,91697.66
2018-09-05T09:02:58.413Z,91691.23
2018-09-05T09:05:30.593Z,91692.00
2018-09-05T09:08:01.421Z,91689.18
2018-09-05T09:10:33.645Z,91693.39
2018-09-05T09:13:05.488Z,91686.05
2018-09-05T09:15:37.159Z,91688.92
2018-09-05T09:18:08.033Z,91690.91
2018-09-05T09:20:38.903Z,91680.63
2018-09-05T09:23:09.669Z,91683.56
2018-09-05T09:25:40.479Z,91684.44
2018-09-05T09:28:11.343Z,91677.16
2018-09-05T09:30:42.421Z,91675.01
2018-09-05T09:33:13.996Z,91667.45
2018-09-05T09:35:45.049Z,91675.48
2018-09-05T09:38:15.850Z,91674.62
2018-09-05T09:40:46.688Z,91670.75
2018-09-05T09:43:17.532Z,91671.50
2018-09-05T09:45:48.413Z,91657.99
2018-09-05T09:48:19.153Z,91664.61
2018-09-05T09:50:50.036Z,91669.27
2018-09-05T09:53:21.383Z,91657.20
2018-09-05T09:55:53.263Z,91657.25
2018-09-05T09:58:24.018Z,91646.23
2018-09-05T10:00:59.845Z,91657.61
2018-09-05T10:03:35.806Z,91648.23
2018-09-05T10:06:12.516Z,91652.63
2018-09-05T10:08:48.362Z,91653.64
2018-09-05T10:11:23.490Z,91642.56
2018-09-05T10:13:59.216Z,91645.73
2018-09-05T10:16:35.087Z,91653.31
2018-09-05T10:19:11.015Z,91647.88
2018-09-05T10:21:42.921Z,91643.80
2018-09-05T10:24:14.742Z,91639.84
2018-09-05T10:26:45.617Z,91619.47
2018-09-05T10:29:16.637Z,91635.06
2018-09-05T10:31:47.897Z,91634.59
2018-09-05T10:34:18.849Z,91627.52
2018-09-05T10:36:49.745Z,91637.00
2018-09-05T10:39:20.918Z,91629.05
2018-09-05T10:41:52.184Z,91626.51
2018-09-05T10:44:26.085Z,91622.36
2018-09-05T10:46:59.814Z,91627.16
2018-09-05T10:49:30.950Z,91626.34
2018-09-05T10:52:03.975Z,91621.50
2018-09-05T10:54:35.444Z,91622.84
2018-09-05T10:57:06.689Z,91626.52
2018-09-05T10:59:37.470Z,91629.32
2018-09-05T11:02:08.450Z,91623.73
2018-09-05T11:04:39.427Z,91609.63
2018-09-05T11:07:10.550Z,91621.93
2018-09-05T11:09:41.276Z,91631.23
2018-09-05T11:12:12.241Z,91625.68
2018-09-05T11:14:43.000Z,91611.11
2018-09-05T11:17:13.908Z,91607.74
2018-09-05T11:19:44.851Z,91616.97
2018-09-05T11:22:15.753Z,91607.56
2018-09-05T11:24:47.258Z,91613.07
2018-09-05T11:27:18.876Z,91611.68
2018-09-05T11:29:49.735Z,91611.30
2018-09-05T11:32:23.368Z,91614.24
2018-09-05T11:34:54.699Z,91601.53
2018-09-05T11:37:26.033Z,91601.55
2018-09-05T11:39:56.779Z,91607.32
2018-09-05T11:42:27.713Z,91599.48
2018-09-05T11:44:58.470Z,91598.22
2018-09-05T11:47:29.365Z,91586.31
2018-09-05T11:50:00.098Z,91599.81
2018-09-05T11:52:31.053Z,91592.48
2018-09-05T11:55:01.798Z,91592.52
2018-09-05T11:57:32.839Z,91594.33
2018-09-05T12:00:03.799Z,91597.48
2018-09-05T12:02:34.905Z,91598.08
2018-09-05T12:05:05.806Z,91586.98
2018-09-05T12:07:37.472Z,91592.88
2018-09-05T12:10:08.454Z,91596.08
2018-09-05T12:12:39.361Z,91591.12
2018-09-05T12:15:10.768Z,91596.19
2018-09-05T12:17:41.638Z,91597.30
2018-09-05T12:20:12.924Z,91592.11
2018-09-05T12:22:43.834Z,91601.52
2018-09-05T12:25:14.708Z,91588.84
2018-09-05T12:27:45.750Z,91603.53
2018-09-05T12:30:16.516Z,91599.58
2018-09-05T12:32:48.824Z,91599.91
2018-09-05T12:35:20.612Z,91592.14
2018-09-05T12:37:52.251Z,91597.22
2018-09-05T12:40:23.182Z,91600.13
2018-09-05T12:42:54.093Z,91597.55
2018-09-05T12:45:24.875Z,91599.77
2018-09-05T12:47:55.658Z,91607.90
2018-09-05T12:50:26.439Z,91616.97
2018-09-05T12:52:57.686Z,91619.34
2018-09-05T12:55:28.693Z,91620.53
2018-09-05T12:57:59.464Z,91619.41
2018-09-05T13:00:30.297Z,91618.83
2018-09-05T13:03:01.108Z,91618.33
2018-09-05T13:05:32.007Z,91618.51
2018-09-05T13:08:05.020Z,91621.85
2018-09-05T13:10:35.817Z,91620.12
2018-09-05T13:13:06.627Z,91626.48
2018-09-05T13:15:38.756Z,91630.30
2018-09-05T13:18:09.745Z,91622.56
2018-09-05T13:20:41.294Z,91626.16
2018-09-05T13:23:13.209Z,91621.73
2018-09-05T13:25:43.958Z,91625.03
2018-09-05T13:28:14.732Z,91635.52
2018-09-05T13:30:45.954Z,91625.20
2018-09-05T13:33:16.837Z,91625.11
2018-09-05T13:35:48.556Z,91628.96
2018-09-05T13:38:19.528Z,91631.87
2018-09-05T13:40:50.897Z,91628.02
2018-09-05T13:43:22.709Z,91629.32
2018-09-05T13:45:53.504Z,91629.33
2018-09-05T13:48:24.991Z,91632.27
2018-09-05T13:50:56.805Z,91632.46
2018-09-05T13:53:28.128Z,91629.37
2018-09-05T13:56:01.684Z,91637.42
2018-09-05T13:58:35.742Z,91641.29
2018-09-05T14:01:12.279Z,91631.33
2018-09-05T14:03:43.057Z,91637.98
2018-09-05T14:06:14.826Z,91636.66
2018-09-05T14:08:46.529Z,91643.73
2018-09-05T14:11:20.136Z,91635.00
2018-09-05T14:13:51.853Z,91639.06
2018-09-05T14:16:23.919Z,91634.36
2018-09-05T14:18:55.460Z,91636.81
2018-09-05T14:21:26.224Z,91648.30
2018-09-05T14:23:57.370Z,91644.88
2018-09-05T14:26:28.157Z,91651.12
2018-09-05T14:28:59.391Z,91646.34
2018-09-05T14:31:31.361Z,91650.52
2018-09-05T14:34:03.281Z,91653.22
2018-09-05T14:36:34.098Z,91652.38
2018-09-05T14:39:08.777Z,91649.78
2018-09-05T14:41:39.995Z,91644.25
2018-09-05T14:44:10.905Z,91645.56
2018-09-05T14:46:41.645Z,91648.33
2018-09-05T14:49:13.728Z,91645.61
2018-09-05T14:51:45.889Z,91644.94
2018-09-05T14:54:16.757Z,91643.86
2018-09-05T14:56:47.960Z,91660.49
2018-09-05T14:59:18.887Z,91667.22
2018-09-05T15:01:50.245Z,91660.63
2018-09-05T15:04:21.820Z,91671.20
2018-09-05T15:06:53.325Z,91667.68
2018-09-05T15:09:24.250Z,91665.63
2018-09-05T15:11:55.034Z,91666.00
2018-09-05T15:14:26.904Z,91672.05
2018-09-05T15:16:57.850Z,91668.98
2018-09-05T15:19:32.856Z,91670.37
2018-09-05T15:22:06.098Z,91669.52
2018-09-05T15:24:36.876Z,91681.64
2018-09-05T15:27:08.305Z,91681.62
2018-09-05T15:29:39.589Z,91672.94
2018-09-05T15:32:10.375Z,91679.63
2018-09-05T15:34:42.357Z,91679.17
2018-09-05T15:37:14.274Z,91678.05
2018-09-05T15:39:50.303Z,91676.31
2018-09-05T15:42:21.136Z,91675.02
2018-09-05T15:44:52.687Z,91683.39
2018-09-05T15:47:25.440Z,91680.24
2018-09-05T15:49:57.583Z,91673.06
2018-09-05T15:52:28.942Z,91679.84
2018-09-05T15:55:01.884Z,91678.20
2018-09-05T15:57:33.044Z,91682.62
2018-09-05T16:00:04.201Z,91681.73
2018-09-05T16:02:34.960Z,91680.75
2018-09-05T16:05:06.551Z,91683.67
2018-09-05T16:07:37.957Z,91678.81
2018-09-05T16:10:08.879Z,91680.85
2018-09-05T16:12:39.729Z,91680.16
2018-09-05T16:15:10.979Z,91676.75
2018-09-05T16:17:42.141Z,91678.97
2018-09-05T16:20:12.942Z,91680.29
2018-09-05T16:22:44.157Z,91675.86
2018-09-05T16:25:15.973Z,91687.97
2018-09-05T16:27:46.743Z,91685.92
2018-09-05T16:30:17.611Z,91689.89
2018-09-05T16:32:48.745Z,91692.44
2018-09-05T16:35:20.725Z,91699.09
2018-09-05T16:37:52.380Z,91701.42
2018-09-05T16:40:26.278Z,91700.32
2018-09-05T16:42:57.287Z,91702.18
2018-09-05T16:45:27.352Z,91705.78
2018-09-05T16:47:57.717Z,91703.99
2018-09-05T16:50:27.651Z,91707.14
2018-09-05T16:52:57.350Z,91706.32
2018-09-05T16:55:27.389Z,91713.02
2018-09-05T16:57:57.048Z,91718.36
2018-09-05T17:00:26.789Z,91713.53
2018-09-05T17:02:56.469Z,91723.53
2018-09-05T17:05:26.435Z,91725.28
2018-09-05T17:07:56.170Z,91731.50
2018-09-05T17:10:26.318Z,91736.73
2018-09-05T17:12:55.968Z,91748.96
2018-09-05T17:15:25.751Z,91745.98
2018-09-05T17:17:55.501Z,91746.02
2018-09-05T17:20:25.756Z,91746.48
2018-09-05T17:22:55.492Z,91741.13
2018-09-05T17:25:25.773Z,91749.78
2018-09-05T17:27:55.421Z,91749.46
2018-09-05T17:30:25.104Z,91750.39
2018-09-05T17:32:54.854Z,91758.58
2018-09-05T17:35:24.743Z,91757.77
2018-09-05T17:37:54.479Z,91766.35
2018-09-05T17:40:24.170Z,91767.05
2018-09-05T17:42:53.804Z,91766.05
2018-09-05T17:45:24.243Z,91766.72
2018-09-05T17:47:54.296Z,91765.58
2018-09-05T17:50:23.970Z,91766.20
2018-09-05T17:52:53.988Z,91780.75
2018-09-05T17:55:23.640Z,91778.58
2018-09-05T17:57:53.290Z,91782.91
2018-09-05T18:00:22.981Z,91789.57
2018-09-05T18:02:52.640Z,91783.80
2018-09-05T18:05:22.335Z,91783.14
2018-09-05T18:07:52.063Z,91794.56
2018-09-05T18:10:21.751Z,91800.72
2018-09-05T18:12:51.736Z,91798.43
2018-09-05T18:15:21.438Z,91792.32
2018-09-05T18:17:51.677Z,91791.39
2018-09-05T18:20:21.364Z,91792.79
2018-09-05T18:22:51.327Z,91796.58
2018-09-05T18:25:23.427Z,91801.13
2018-09-05T18:27:55.391Z,91811.07
2018-09-05T18:30:25.762Z,91815.37
2018-09-05T18:32:56.220Z,91819.41
2018-09-05T18:35:26.678Z,91806.95
2018-09-05T18:37:56.342Z,91804.05
2018-09-05T18:40:26.227Z,91815.16
2018-09-05T18:42:56.006Z,91815.08
2018-09-05T18:45:25.668Z,91820.73
2018-09-05T18:47:55.330Z,91820.97
2018-09-05T18:50:26.086Z,91821.20
2018-09-05T18:53:01.531Z,91818.83
2018-09-05T18:55:32.688Z,91819.61
2018-09-05T18:58:02.357Z,91814.39
2018-09-05T19:00:32.034Z,91817.00
2018-09-05T19:03:01.935Z,91814.59
2018-09-05T19:05:31.869Z,91819.48
2018-09-05T19:08:01.527Z,91822.65
2018-09-05T19:10:31.383Z,91823.61
2018-09-05T19:13:01.028Z,91824.63
2018-09-05T19:15:31.401Z,91827.98
2018-09-05T19:18:01.274Z,91822.48
2018-09-05T19:21:55.368Z,91825.17
2018-09-05T19:24:25.679Z,91822.18
2018-09-05T19:26:56.083Z,91828.47
2018-09-05T19:29:26.449Z,91818.15
2018-09-05T19:31:56.146Z,91826.05
2018-09-05T19:34:29.649Z,91817.98
2018-09-05T19:36:59.415Z,91824.73
2018-09-05T19:39:29.652Z,91819.68
2018-09-05T19:41:59.759Z,91816.51
2018-09-05T19:44:30.306Z,91818.89
2018-09-05T19:47:00.721Z,91813.58
2018-09-05T19:49:30.475Z,91811.44
2018-09-05T19:52:00.906Z,91803.56
2018-09-05T19:54:31.231Z,91806.91
2018-09-05T19:57:01.732Z,91799.92
2018-09-05T19:59:36.582Z,91804.80
2018-09-05T20:02:11.974Z,91803.02
2018-09-05T20:04:46.929Z,91804.88
2018-09-05T20:07:21.605Z,91809.45
2018-09-05T20:09:56.347Z,91804.86
2018-09-05T20:12:31.076Z,91805.83
2018-09-05T20:15:06.459Z,91801.17
2018-09-05T20:19:08.875Z,91793.63
2018-09-05T20:21:44.735Z,91794.59
2018-09-05T20:24:19.697Z,91788.45
2018-09-05T20:26:54.669Z,91791.34
2018-09-05T20:29:29.441Z,91801.01
2018-09-05T20:32:04.459Z,91797.64
2018-09-05T20:34:39.318Z,91803.64
2018-09-05T20:37:17.439Z,91796.69
2018-09-05T20:39:52.432Z,91790.06
2018-09-05T20:42:27.287Z,91794.48
2018-09-05T20:45:02.334Z,91803.33
2018-09-05T20:47:37.169Z,91808.53
2018-09-05T20:50:11.963Z,91807.12
2018-09-05T20:52:46.784Z,91803.98
2018-09-05T20:55:22.461Z,91806.23
2018-09-05T20:57:57.308Z,91810.91
2018-09-05T21:00:32.586Z,91813.11
2018-09-05T21:03:07.344Z,91816.58
2018-09-05T21:05:42.280Z,91827.67
2018-09-05T21:08:17.197Z,91823.70
2018-09-05T21:10:52.649Z,91826.97
2018-09-05T21:13:27.926Z,91834.52
2018-09-05T21:16:02.704Z,91836.94
2018-09-05T21:18:37.479Z,91824.17
2018-09-05T21:21:12.317Z,91822.97
2018-09-05T21:23:47.251Z,91825.90
2018-09-05T21:26:25.102Z,91824.09
2018-09-05T21:29:02.691Z,91830.02
2018-09-05T21:31:37.313Z,91819.22
2018-09-05T21:34:12.182Z,91821.78
2018-09-05T21:36:46.793Z,91813.73
2018-09-05T21:39:21.677Z,91815.65
2018-09-05T21:41:56.496Z,91813.20
2018-09-05T21:44:31.628Z,91812.55
2018-09-05T21:47:06.302Z,91811.79
2018-09-05T21:49:41.256Z,91809.05
2018-09-05T21:52:16.514Z,91814.66
2018-09-05T21:54:51.307Z,91815.95
2018-09-05T21:57:25.962Z,91824.34
2018-09-05T22:00:00.896Z,91818.17
2018-09-05T22:02:35.792Z,91821.20
2018-09-05T22:05:10.777Z,91818.17
2018-09-05T22:07:45.823Z,91816.81
2018-09-05T22:10:20.770Z,91817.51
2018-09-05T22:12:55.958Z,91815.86
2018-09-05T22:15:42.719Z,91818.86
2018-09-05T22:18:18.256Z,91828.23
2018-09-05T22:20:53.046Z,91816.75
2018-09-05T22:23:27.778Z,91821.03
2018-09-05T22:26:02.839Z,91818.88
2018-09-05T22:28:37.583Z,91818.27
2018-09-05T22:31:12.448Z,91819.58
2018-09-05T22:33:47.466Z,91819.41
2018-09-05T22:36:22.132Z,91816.05
2018-09-05T22:38:56.815Z,91811.28
2018-09-05T22:41:31.589Z,91813.83
2018-09-05T22:44:11.734Z,91813.56
2018-09-05T22:46:52.024Z,91816.69
2018-09-05T22:49:36.424Z,91821.88
2018-09-05T22:54:26.590Z,91810.91
2018-09-05T22:58:13.984Z,91807.70
2018-09-05T23:01:59.283Z,91804.72
2018-09-05T23:04:43.099Z,91792.95
2018-09-05T23:09:28.021Z,91791.34
2018-09-05T23:12:08.234Z,91796.33
2018-09-05T23:14:48.253Z,91796.86
2018-09-05T23:17:28.531Z,91802.40
2018-09-05T23:20:08.720Z,91793.80
2018-09-05T23:22:49.061Z,91793.25
2018-09-05T23:25:23.957Z,91796.73
2018-09-05T23:27:58.711Z,91795.64
2018-09-05T23:30:33.611Z,91794.02
2018-09-05T23:33:08.485Z,91787.79
2018-09-05T23:35:43.684Z,91783.79
2018-09-05T23:38:18.556Z,91787.84
2018-09-05T23:40:53.349Z,91791.47
2018-09-05T23:43:28.201Z,91788.38
2018-09-05T23:46:02.993Z,91789.79
2018-09-05T23:48:37.998Z,91793.91
2018-09-05T23:51:12.733Z,91800.45
2018-09-05T23:53:47.354Z,91796.72
2018-09-05T23:56:22.312Z,91802.95
2018-09-05T23:58:57.011Z,91807.27
